sensor_id;sensor_type;location;lat;lon;timestamp;temperature;humidity
14049;DHT22;7099;53.922;10.728;2023-06-04T00:00:15;11.20;58.50
14049;DHT22;7099;53.922;10.728;2023-06-04T00:04:21;11.10;58.80
14049;DHT22;7099;53.922;10.728;2023-06-04T00:08:28;11.00;59.10
14049;DHT22;7099;53.922;10.728;2023-06-04T00:12:34;11.00;59.10
14049;DHT22;7099;53.922;10.728;2023-06-04T00:16:39;10.90;59.40
14049;DHT22;7099;53.922;10.728;2023-06-04T00:20:46;10.80;59.70
14049;DHT22;7099;53.922;10.728;2023-06-04T00:24:51;10.80;60.20
14049;DHT22;7099;53.922;10.728;2023-06-04T00:28:57;10.70;60.10
14049;DHT22;7099;53.922;10.728;2023-06-04T00:33:02;10.60;60.40
14049;DHT22;7099;53.922;10.728;2023-06-04T00:37:08;10.60;60.70
14049;DHT22;7099;53.922;10.728;2023-06-04T00:41:14;10.50;60.70
14049;DHT22;7099;53.922;10.728;2023-06-04T00:45:19;10.40;61.00
14049;DHT22;7099;53.922;10.728;2023-06-04T00:49:25;10.30;61.20
14049;DHT22;7099;53.922;10.728;2023-06-04T00:53:31;10.20;61.40
14049;DHT22;7099;53.922;10.728;2023-06-04T00:57:37;10.10;61.50
14049;DHT22;7099;53.922;10.728;2023-06-04T01:02:35;10.00;61.70
14049;DHT22;7099;53.922;10.728;2023-06-04T01:06:39;10.00;62.80
14049;DHT22;7099;53.922;10.728;2023-06-04T01:10:52;10.00;62.70
14049;DHT22;7099;53.922;10.728;2023-06-04T01:14:59;9.90;62.70
14049;DHT22;7099;53.922;10.728;2023-06-04T01:19:10;9.90;62.10
14049;DHT22;7099;53.922;10.728;2023-06-04T01:23:37;9.80;62.30
14049;DHT22;7099;53.922;10.728;2023-06-04T01:27:54;9.70;62.60
14049;DHT22;7099;53.922;10.728;2023-06-04T01:32:01;9.70;63.10
14049;DHT22;7099;53.922;10.728;2023-06-04T01:36:07;9.60;63.00
14049;DHT22;7099;53.922;10.728;2023-06-04T01:40:15;9.60;62.80
14049;DHT22;7099;53.922;10.728;2023-06-04T01:44:21;9.50;63.00
14049;DHT22;7099;53.922;10.728;2023-06-04T01:48:26;9.40;63.10
14049;DHT22;7099;53.922;10.728;2023-06-04T01:52:32;9.40;64.00
14049;DHT22;7099;53.922;10.728;2023-06-04T01:56:38;9.30;63.40
14049;DHT22;7099;53.922;10.728;2023-06-04T02:00:43;9.20;63.50
14049;DHT22;7099;53.922;10.728;2023-06-04T02:04:49;9.20;63.90
14049;DHT22;7099;53.922;10.728;2023-06-04T02:08:56;9.20;63.80
14049;DHT22;7099;53.922;10.728;2023-06-04T02:13:03;9.10;63.70
14049;DHT22;7099;53.922;10.728;2023-06-04T02:17:08;9.10;64.00
14049;DHT22;7099;53.922;10.728;2023-06-04T02:21:17;9.00;64.20
14049;DHT22;7099;53.922;10.728;2023-06-04T02:25:23;9.00;64.40
14049;DHT22;7099;53.922;10.728;2023-06-04T02:29:29;8.90;64.20
14049;DHT22;7099;53.922;10.728;2023-06-04T02:33:34;8.90;64.40
14049;DHT22;7099;53.922;10.728;2023-06-04T02:37:40;8.80;64.20
14049;DHT22;7099;53.922;10.728;2023-06-04T02:41:45;8.80;64.50
14049;DHT22;7099;53.922;10.728;2023-06-04T02:45:51;8.70;64.60
14049;DHT22;7099;53.922;10.728;2023-06-04T02:49:57;8.70;64.50
14049;DHT22;7099;53.922;10.728;2023-06-04T02:54:03;8.70;64.60
14049;DHT22;7099;53.922;10.728;2023-06-04T02:58:08;8.60;64.80
14049;DHT22;7099;53.922;10.728;2023-06-04T03:02:14;8.60;64.80
14049;DHT22;7099;53.922;10.728;2023-06-04T03:06:21;8.60;65.00
14049;DHT22;7099;53.922;10.728;2023-06-04T03:10:27;8.50;65.00
14049;DHT22;7099;53.922;10.728;2023-06-04T03:14:32;8.50;65.00
14049;DHT22;7099;53.922;10.728;2023-06-04T03:18:39;8.50;65.20
14049;DHT22;7099;53.922;10.728;2023-06-04T03:22:45;8.40;65.10
14049;DHT22;7099;53.922;10.728;2023-06-04T03:26:51;8.30;65.90
14049;DHT22;7099;53.922;10.728;2023-06-04T03:30:56;8.30;65.70
14049;DHT22;7099;53.922;10.728;2023-06-04T03:35:02;8.30;66.20
14049;DHT22;7099;53.922;10.728;2023-06-04T03:39:08;8.30;65.70
14049;DHT22;7099;53.922;10.728;2023-06-04T03:43:13;8.30;66.00
14049;DHT22;7099;53.922;10.728;2023-06-04T03:47:19;8.30;66.20
14049;DHT22;7099;53.922;10.728;2023-06-04T03:51:25;8.30;66.70
14049;DHT22;7099;53.922;10.728;2023-06-04T03:55:31;8.40;66.80
14049;DHT22;7099;53.922;10.728;2023-06-04T03:59:39;8.40;67.40
14049;DHT22;7099;53.922;10.728;2023-06-04T04:03:45;8.50;68.00
14049;DHT22;7099;53.922;10.728;2023-06-04T04:07:54;8.50;68.00
14049;DHT22;7099;53.922;10.728;2023-06-04T04:11:59;8.60;68.10
14049;DHT22;7099;53.922;10.728;2023-06-04T04:16:05;8.60;68.30
14049;DHT22;7099;53.922;10.728;2023-06-04T04:20:11;8.70;68.40
14049;DHT22;7099;53.922;10.728;2023-06-04T04:24:26;8.80;68.50
14049;DHT22;7099;53.922;10.728;2023-06-04T04:28:32;8.80;69.30
14049;DHT22;7099;53.922;10.728;2023-06-04T04:32:41;8.90;69.40
14049;DHT22;7099;53.922;10.728;2023-06-04T04:36:54;9.00;69.00
14049;DHT22;7099;53.922;10.728;2023-06-04T04:41:01;9.10;68.80
14049;DHT22;7099;53.922;10.728;2023-06-04T04:45:07;9.20;69.10
14049;DHT22;7099;53.922;10.728;2023-06-04T04:49:13;9.20;69.10
14049;DHT22;7099;53.922;10.728;2023-06-04T04:53:19;9.40;69.40
14049;DHT22;7099;53.922;10.728;2023-06-04T04:57:24;9.50;69.60
14049;DHT22;7099;53.922;10.728;2023-06-04T05:01:30;9.70;69.70
14049;DHT22;7099;53.922;10.728;2023-06-04T05:05:35;9.80;69.80
14049;DHT22;7099;53.922;10.728;2023-06-04T05:09:41;10.00;70.10
14049;DHT22;7099;53.922;10.728;2023-06-04T05:13:46;10.10;70.20
14049;DHT22;7099;53.922;10.728;2023-06-04T05:17:52;10.30;70.70
14049;DHT22;7099;53.922;10.728;2023-06-04T05:21:59;10.50;70.80
14049;DHT22;7099;53.922;10.728;2023-06-04T05:26:05;10.70;71.10
14049;DHT22;7099;53.922;10.728;2023-06-04T05:30:11;11.00;71.40
14049;DHT22;7099;53.922;10.728;2023-06-04T05:34:17;11.20;71.50
14049;DHT22;7099;53.922;10.728;2023-06-04T05:38:24;11.40;71.40
14049;DHT22;7099;53.922;10.728;2023-06-04T05:42:32;11.60;71.30
14049;DHT22;7099;53.922;10.728;2023-06-04T05:46:38;11.80;71.00
14049;DHT22;7099;53.922;10.728;2023-06-04T05:50:43;12.00;70.90
14049;DHT22;7099;53.922;10.728;2023-06-04T05:54:49;12.30;71.00
14049;DHT22;7099;53.922;10.728;2023-06-04T05:58:55;12.50;70.70
14049;DHT22;7099;53.922;10.728;2023-06-04T06:03:01;12.70;70.20
14049;DHT22;7099;53.922;10.728;2023-06-04T06:07:07;12.80;69.90
14049;DHT22;7099;53.922;10.728;2023-06-04T06:11:13;13.10;69.80
14049;DHT22;7099;53.922;10.728;2023-06-04T06:15:19;13.20;69.60
14049;DHT22;7099;53.922;10.728;2023-06-04T06:19:24;13.50;69.20
14049;DHT22;7099;53.922;10.728;2023-06-04T06:23:30;13.70;69.00
14049;DHT22;7099;53.922;10.728;2023-06-04T06:27:36;13.90;68.60
14049;DHT22;7099;53.922;10.728;2023-06-04T06:31:41;14.20;68.10
14049;DHT22;7099;53.922;10.728;2023-06-04T06:35:47;14.30;67.90
14049;DHT22;7099;53.922;10.728;2023-06-04T06:39:53;14.50;67.50
14049;DHT22;7099;53.922;10.728;2023-06-04T06:43:58;14.80;66.80
14049;DHT22;7099;53.922;10.728;2023-06-04T06:48:04;15.00;66.50
14049;DHT22;7099;53.922;10.728;2023-06-04T06:52:10;15.20;66.10
14049;DHT22;7099;53.922;10.728;2023-06-04T06:56:16;15.40;65.60
14049;DHT22;7099;53.922;10.728;2023-06-04T07:00:23;15.60;64.60
14049;DHT22;7099;53.922;10.728;2023-06-04T07:04:29;15.80;64.10
14049;DHT22;7099;53.922;10.728;2023-06-04T07:08:34;15.90;63.20
14049;DHT22;7099;53.922;10.728;2023-06-04T07:12:40;16.10;63.20
14049;DHT22;7099;53.922;10.728;2023-06-04T07:16:48;16.30;62.10
14049;DHT22;7099;53.922;10.728;2023-06-04T07:20:53;16.50;60.80
14049;DHT22;7099;53.922;10.728;2023-06-04T07:25:02;16.60;60.10
14049;DHT22;7099;53.922;10.728;2023-06-04T07:29:07;16.90;60.60
14049;DHT22;7099;53.922;10.728;2023-06-04T07:33:13;17.10;59.50
14049;DHT22;7099;53.922;10.728;2023-06-04T07:37:18;17.40;59.60
14049;DHT22;7099;53.922;10.728;2023-06-04T07:41:24;17.50;57.90
14049;DHT22;7099;53.922;10.728;2023-06-04T07:45:31;17.70;58.30
14049;DHT22;7099;53.922;10.728;2023-06-04T07:49:39;17.90;57.00
14049;DHT22;7099;53.922;10.728;2023-06-04T07:54:05;18.10;55.40
14049;DHT22;7099;53.922;10.728;2023-06-04T07:58:10;18.20;54.60
14049;DHT22;7099;53.922;10.728;2023-06-04T08:02:16;18.30;53.00
14049;DHT22;7099;53.922;10.728;2023-06-04T08:06:22;18.40;52.10
14049;DHT22;7099;53.922;10.728;2023-06-04T08:10:29;18.60;51.20
14049;DHT22;7099;53.922;10.728;2023-06-04T08:14:35;18.70;50.90
14049;DHT22;7099;53.922;10.728;2023-06-04T08:18:41;18.90;50.60
14049;DHT22;7099;53.922;10.728;2023-06-04T08:22:46;19.10;50.60
14049;DHT22;7099;53.922;10.728;2023-06-04T08:26:52;19.30;50.00
14049;DHT22;7099;53.922;10.728;2023-06-04T08:30:57;19.40;48.20
14049;DHT22;7099;53.922;10.728;2023-06-04T08:35:03;19.50;48.90
14049;DHT22;7099;53.922;10.728;2023-06-04T08:39:10;19.70;47.80
14049;DHT22;7099;53.922;10.728;2023-06-04T08:43:16;19.90;47.10
14049;DHT22;7099;53.922;10.728;2023-06-04T08:47:24;20.10;46.20
14049;DHT22;7099;53.922;10.728;2023-06-04T08:51:36;20.20;45.90
14049;DHT22;7099;53.922;10.728;2023-06-04T08:55:42;20.30;45.60
14049;DHT22;7099;53.922;10.728;2023-06-04T08:59:48;20.40;44.30
14049;DHT22;7099;53.922;10.728;2023-06-04T09:03:55;20.40;44.10
14049;DHT22;7099;53.922;10.728;2023-06-04T09:08:04;20.50;44.00
14049;DHT22;7099;53.922;10.728;2023-06-04T09:12:19;20.60;43.00
14049;DHT22;7099;53.922;10.728;2023-06-04T09:16:27;20.70;43.50
14049;DHT22;7099;53.922;10.728;2023-06-04T09:20:33;20.90;43.00
14049;DHT22;7099;53.922;10.728;2023-06-04T09:24:44;21.10;42.80
14049;DHT22;7099;53.922;10.728;2023-06-04T09:29:01;21.20;41.60
14049;DHT22;7099;53.922;10.728;2023-06-04T09:33:11;21.30;42.20
14049;DHT22;7099;53.922;10.728;2023-06-04T09:37:17;21.60;40.50
14049;DHT22;7099;53.922;10.728;2023-06-04T09:41:23;21.60;40.60
14049;DHT22;7099;53.922;10.728;2023-06-04T09:45:35;21.80;40.30
14049;DHT22;7099;53.922;10.728;2023-06-04T09:49:42;21.90;40.40
14049;DHT22;7099;53.922;10.728;2023-06-04T09:53:55;22.00;40.00
14049;DHT22;7099;53.922;10.728;2023-06-04T09:58:03;22.10;40.00
14049;DHT22;7099;53.922;10.728;2023-06-04T10:02:11;22.40;39.50
14049;DHT22;7099;53.922;10.728;2023-06-04T10:06:19;22.40;37.60
14049;DHT22;7099;53.922;10.728;2023-06-04T10:10:26;22.30;38.40
14049;DHT22;7099;53.922;10.728;2023-06-04T10:14:41;22.30;38.00
14049;DHT22;7099;53.922;10.728;2023-06-04T10:18:48;22.30;38.90
14049;DHT22;7099;53.922;10.728;2023-06-04T10:22:55;22.30;39.30
14049;DHT22;7099;53.922;10.728;2023-06-04T10:27:01;22.40;38.90
14049;DHT22;7099;53.922;10.728;2023-06-04T10:31:09;22.50;38.40
14049;DHT22;7099;53.922;10.728;2023-06-04T10:35:15;22.60;38.40
14049;DHT22;7099;53.922;10.728;2023-06-04T10:39:28;22.70;37.70
14049;DHT22;7099;53.922;10.728;2023-06-04T10:43:34;22.70;36.00
14049;DHT22;7099;53.922;10.728;2023-06-04T10:47:39;22.80;37.80
14049;DHT22;7099;53.922;10.728;2023-06-04T10:51:46;22.90;37.00
14049;DHT22;7099;53.922;10.728;2023-06-04T10:55:52;23.10;37.00
14049;DHT22;7099;53.922;10.728;2023-06-04T10:59:59;23.10;35.40
14049;DHT22;7099;53.922;10.728;2023-06-04T11:04:05;23.10;36.70
14049;DHT22;7099;53.922;10.728;2023-06-04T11:08:12;23.20;36.60
14049;DHT22;7099;53.922;10.728;2023-06-04T11:12:22;23.50;35.30
14049;DHT22;7099;53.922;10.728;2023-06-04T11:16:32;23.60;36.70
14049;DHT22;7099;53.922;10.728;2023-06-04T11:20:38;23.80;35.50
14049;DHT22;7099;53.922;10.728;2023-06-04T11:24:44;23.70;35.30
14049;DHT22;7099;53.922;10.728;2023-06-04T11:28:49;23.80;35.80
14049;DHT22;7099;53.922;10.728;2023-06-04T11:33:02;23.90;35.00
14049;DHT22;7099;53.922;10.728;2023-06-04T11:37:09;23.90;33.90
14049;DHT22;7099;53.922;10.728;2023-06-04T11:41:15;24.00;34.40
14049;DHT22;7099;53.922;10.728;2023-06-04T11:45:22;24.00;34.60
14049;DHT22;7099;53.922;10.728;2023-06-04T11:49:28;24.10;34.40
14049;DHT22;7099;53.922;10.728;2023-06-04T11:53:36;24.20;34.20
14049;DHT22;7099;53.922;10.728;2023-06-04T11:57:42;24.30;35.20
14049;DHT22;7099;53.922;10.728;2023-06-04T12:01:48;24.30;35.00
14049;DHT22;7099;53.922;10.728;2023-06-04T12:05:54;24.20;34.90
14049;DHT22;7099;53.922;10.728;2023-06-04T12:10:08;24.30;35.10
14049;DHT22;7099;53.922;10.728;2023-06-04T12:14:18;24.40;34.00
14049;DHT22;7099;53.922;10.728;2023-06-04T12:18:27;24.40;33.80
14049;DHT22;7099;53.922;10.728;2023-06-04T12:22:33;24.40;34.70
14049;DHT22;7099;53.922;10.728;2023-06-04T12:26:49;24.70;35.60
14049;DHT22;7099;53.922;10.728;2023-06-04T12:31:16;24.90;34.80
14049;DHT22;7099;53.922;10.728;2023-06-04T12:35:23;25.00;34.10
14049;DHT22;7099;53.922;10.728;2023-06-04T12:39:29;25.10;33.80
14049;DHT22;7099;53.922;10.728;2023-06-04T12:43:35;25.10;33.70
14049;DHT22;7099;53.922;10.728;2023-06-04T12:47:42;25.20;33.20
14049;DHT22;7099;53.922;10.728;2023-06-04T12:51:48;25.30;33.00
14049;DHT22;7099;53.922;10.728;2023-06-04T12:55:53;25.40;33.10
14049;DHT22;7099;53.922;10.728;2023-06-04T12:59:59;25.50;36.30
14049;DHT22;7099;53.922;10.728;2023-06-04T13:04:05;25.50;37.50
14049;DHT22;7099;53.922;10.728;2023-06-04T13:08:11;25.70;37.10
14049;DHT22;7099;53.922;10.728;2023-06-04T13:12:16;25.70;37.40
14049;DHT22;7099;53.922;10.728;2023-06-04T13:16:22;25.70;36.90
14049;DHT22;7099;53.922;10.728;2023-06-04T13:20:28;25.80;36.00
14049;DHT22;7099;53.922;10.728;2023-06-04T13:24:33;26.00;36.80
14049;DHT22;7099;53.922;10.728;2023-06-04T13:28:39;26.10;36.10
14049;DHT22;7099;53.922;10.728;2023-06-04T13:32:44;26.20;37.40
14049;DHT22;7099;53.922;10.728;2023-06-04T13:36:50;26.30;36.80
14049;DHT22;7099;53.922;10.728;2023-06-04T13:40:56;26.60;36.10
14049;DHT22;7099;53.922;10.728;2023-06-04T13:45:01;26.60;36.60
14049;DHT22;7099;53.922;10.728;2023-06-04T13:49:07;26.50;36.90
14049;DHT22;7099;53.922;10.728;2023-06-04T13:53:13;26.50;36.60
14049;DHT22;7099;53.922;10.728;2023-06-04T13:57:18;26.50;36.90
14049;DHT22;7099;53.922;10.728;2023-06-04T14:01:24;26.50;36.70
14049;DHT22;7099;53.922;10.728;2023-06-04T14:05:29;26.50;37.00
14049;DHT22;7099;53.922;10.728;2023-06-04T14:09:35;26.60;36.80
14049;DHT22;7099;53.922;10.728;2023-06-04T14:13:41;26.70;36.20
14049;DHT22;7099;53.922;10.728;2023-06-04T14:17:50;26.60;37.00
14049;DHT22;7099;53.922;10.728;2023-06-04T14:21:55;26.80;36.90
14049;DHT22;7099;53.922;10.728;2023-06-04T14:26:01;26.70;37.80
14049;DHT22;7099;53.922;10.728;2023-06-04T14:30:07;26.60;37.30
14049;DHT22;7099;53.922;10.728;2023-06-04T14:34:13;26.40;38.00
14049;DHT22;7099;53.922;10.728;2023-06-04T14:38:19;26.60;37.80
14049;DHT22;7099;53.922;10.728;2023-06-04T14:42:24;26.90;38.40
14049;DHT22;7099;53.922;10.728;2023-06-04T14:46:30;27.00;38.50
14049;DHT22;7099;53.922;10.728;2023-06-04T14:50:36;27.00;38.20
14049;DHT22;7099;53.922;10.728;2023-06-04T14:54:41;26.90;38.10
14049;DHT22;7099;53.922;10.728;2023-06-04T14:58:47;26.70;38.40
14049;DHT22;7099;53.922;10.728;2023-06-04T15:02:52;26.60;38.70
14049;DHT22;7099;53.922;10.728;2023-06-04T15:06:58;26.50;39.10
14049;DHT22;7099;53.922;10.728;2023-06-04T15:11:03;26.60;39.20
14049;DHT22;7099;53.922;10.728;2023-06-04T15:15:09;26.70;38.90
14049;DHT22;7099;53.922;10.728;2023-06-04T15:19:15;26.50;39.20
14049;DHT22;7099;53.922;10.728;2023-06-04T15:23:20;26.30;39.10
14049;DHT22;7099;53.922;10.728;2023-06-04T15:27:26;26.10;39.00
14049;DHT22;7099;53.922;10.728;2023-06-04T15:31:31;25.90;39.00
14049;DHT22;7099;53.922;10.728;2023-06-04T15:35:37;26.10;39.00
14049;DHT22;7099;53.922;10.728;2023-06-04T15:39:42;26.00;39.30
14049;DHT22;7099;53.922;10.728;2023-06-04T15:43:50;26.00;40.20
14049;DHT22;7099;53.922;10.728;2023-06-04T15:47:56;25.90;39.60
14049;DHT22;7099;53.922;10.728;2023-06-04T15:52:02;25.80;40.10
14049;DHT22;7099;53.922;10.728;2023-06-04T15:56:07;26.00;40.00
14049;DHT22;7099;53.922;10.728;2023-06-04T16:00:13;26.30;39.70
14049;DHT22;7099;53.922;10.728;2023-06-04T16:04:19;26.40;39.60
14049;DHT22;7099;53.922;10.728;2023-06-04T16:08:25;26.50;39.30
14049;DHT22;7099;53.922;10.728;2023-06-04T16:12:30;26.20;39.50
14049;DHT22;7099;53.922;10.728;2023-06-04T16:16:36;26.00;39.80
14049;DHT22;7099;53.922;10.728;2023-06-04T16:20:42;26.00;39.80
14049;DHT22;7099;53.922;10.728;2023-06-04T16:24:47;26.00;39.90
14049;DHT22;7099;53.922;10.728;2023-06-04T16:28:53;25.90;40.00
14049;DHT22;7099;53.922;10.728;2023-06-04T16:32:58;25.90;39.90
14049;DHT22;7099;53.922;10.728;2023-06-04T16:37:04;25.70;40.00
14049;DHT22;7099;53.922;10.728;2023-06-04T16:41:10;25.50;40.30
14049;DHT22;7099;53.922;10.728;2023-06-04T16:45:16;25.50;40.30
14049;DHT22;7099;53.922;10.728;2023-06-04T16:49:22;25.40;40.40
14049;DHT22;7099;53.922;10.728;2023-06-04T16:53:27;25.40;40.40
14049;DHT22;7099;53.922;10.728;2023-06-04T16:57:35;25.30;40.30
14049;DHT22;7099;53.922;10.728;2023-06-04T17:01:41;25.30;40.50
14049;DHT22;7099;53.922;10.728;2023-06-04T17:05:47;25.10;40.50
14049;DHT22;7099;53.922;10.728;2023-06-04T17:09:52;25.10;40.70
14049;DHT22;7099;53.922;10.728;2023-06-04T17:13:58;25.00;40.90
14049;DHT22;7099;53.922;10.728;2023-06-04T17:18:04;24.70;41.20
14049;DHT22;7099;53.922;10.728;2023-06-04T17:22:15;24.60;41.70
14049;DHT22;7099;53.922;10.728;2023-06-04T17:26:21;24.50;41.60
14049;DHT22;7099;53.922;10.728;2023-06-04T17:30:27;24.30;42.00
14049;DHT22;7099;53.922;10.728;2023-06-04T17:34:32;24.30;42.20
14049;DHT22;7099;53.922;10.728;2023-06-04T17:38:38;24.30;42.40
14049;DHT22;7099;53.922;10.728;2023-06-04T17:42:43;24.20;42.60
14049;DHT22;7099;53.922;10.728;2023-06-04T17:46:51;24.20;42.70
14049;DHT22;7099;53.922;10.728;2023-06-04T17:50:57;24.00;42.80
14049;DHT22;7099;53.922;10.728;2023-06-04T17:55:03;23.90;43.30
14049;DHT22;7099;53.922;10.728;2023-06-04T17:59:09;23.70;43.50
14049;DHT22;7099;53.922;10.728;2023-06-04T18:03:14;23.40;44.10
14049;DHT22;7099;53.922;10.728;2023-06-04T18:07:20;23.30;44.40
14049;DHT22;7099;53.922;10.728;2023-06-04T18:11:26;23.20;44.80
14049;DHT22;7099;53.922;10.728;2023-06-04T18:15:32;22.90;45.80
14049;DHT22;7099;53.922;10.728;2023-06-04T18:19:37;22.70;46.30
14049;DHT22;7099;53.922;10.728;2023-06-04T18:23:43;22.60;46.60
14049;DHT22;7099;53.922;10.728;2023-06-04T18:27:54;22.40;46.80
14049;DHT22;7099;53.922;10.728;2023-06-04T18:32:00;22.30;47.20
14049;DHT22;7099;53.922;10.728;2023-06-04T18:36:06;22.10;47.20
14049;DHT22;7099;53.922;10.728;2023-06-04T18:40:12;21.90;47.60
14049;DHT22;7099;53.922;10.728;2023-06-04T18:44:19;21.80;47.80
14049;DHT22;7099;53.922;10.728;2023-06-04T18:48:25;21.80;48.10
14049;DHT22;7099;53.922;10.728;2023-06-04T18:52:30;21.60;48.20
14049;DHT22;7099;53.922;10.728;2023-06-04T18:56:38;21.40;48.70
14049;DHT22;7099;53.922;10.728;2023-06-04T19:00:44;21.20;49.20
14049;DHT22;7099;53.922;10.728;2023-06-04T19:04:50;21.10;49.50
14049;DHT22;7099;53.922;10.728;2023-06-04T19:08:55;20.80;50.70
14049;DHT22;7099;53.922;10.728;2023-06-04T19:13:01;20.70;50.50
14049;DHT22;7099;53.922;10.728;2023-06-04T19:17:06;20.50;50.90
14049;DHT22;7099;53.922;10.728;2023-06-04T19:21:12;20.30;52.00
14049;DHT22;7099;53.922;10.728;2023-06-04T19:25:18;20.10;52.00
14049;DHT22;7099;53.922;10.728;2023-06-04T19:29:23;20.00;52.30
14049;DHT22;7099;53.922;10.728;2023-06-04T19:33:29;19.80;52.70
14049;DHT22;7099;53.922;10.728;2023-06-04T19:37:37;19.70;53.20
14049;DHT22;7099;53.922;10.728;2023-06-04T19:41:43;19.50;53.50
14049;DHT22;7099;53.922;10.728;2023-06-04T19:45:48;19.40;53.70
14049;DHT22;7099;53.922;10.728;2023-06-04T19:50:01;19.30;54.10
14049;DHT22;7099;53.922;10.728;2023-06-04T19:54:07;19.10;54.40
14049;DHT22;7099;53.922;10.728;2023-06-04T19:58:12;19.00;54.70
14049;DHT22;7099;53.922;10.728;2023-06-04T20:02:19;18.90;55.10
14049;DHT22;7099;53.922;10.728;2023-06-04T20:06:25;18.70;55.50
14049;DHT22;7099;53.922;10.728;2023-06-04T20:10:32;18.60;55.80
14049;DHT22;7099;53.922;10.728;2023-06-04T20:14:37;18.40;56.40
14049;DHT22;7099;53.922;10.728;2023-06-04T20:18:43;18.20;57.10
14049;DHT22;7099;53.922;10.728;2023-06-04T20:22:48;18.00;57.50
14049;DHT22;7099;53.922;10.728;2023-06-04T20:26:54;17.90;57.70
14049;DHT22;7099;53.922;10.728;2023-06-04T20:31:02;17.70;57.90
14049;DHT22;7099;53.922;10.728;2023-06-04T20:35:08;17.60;58.30
14049;DHT22;7099;53.922;10.728;2023-06-04T20:39:14;17.40;58.60
14049;DHT22;7099;53.922;10.728;2023-06-04T20:43:22;17.20;59.00
14049;DHT22;7099;53.922;10.728;2023-06-04T20:47:27;17.10;59.40
14049;DHT22;7099;53.922;10.728;2023-06-04T20:51:33;16.90;59.60
14049;DHT22;7099;53.922;10.728;2023-06-04T20:55:39;16.80;59.90
14049;DHT22;7099;53.922;10.728;2023-06-04T20:59:44;16.70;60.20
14049;DHT22;7099;53.922;10.728;2023-06-04T21:03:50;16.50;60.50
14049;DHT22;7099;53.922;10.728;2023-06-04T21:07:55;16.40;61.00
14049;DHT22;7099;53.922;10.728;2023-06-04T21:12:05;16.30;61.50
14049;DHT22;7099;53.922;10.728;2023-06-04T21:16:12;16.10;61.60
14049;DHT22;7099;53.922;10.728;2023-06-04T21:20:17;16.00;61.70
14049;DHT22;7099;53.922;10.728;2023-06-04T21:24:23;15.90;62.20
14049;DHT22;7099;53.922;10.728;2023-06-04T21:28:28;15.70;62.30
14049;DHT22;7099;53.922;10.728;2023-06-04T21:32:34;15.60;62.50
14049;DHT22;7099;53.922;10.728;2023-06-04T21:36:40;15.50;62.80
14049;DHT22;7099;53.922;10.728;2023-06-04T21:40:45;15.40;63.40
14049;DHT22;7099;53.922;10.728;2023-06-04T21:44:51;15.30;64.00
14049;DHT22;7099;53.922;10.728;2023-06-04T21:48:56;15.20;63.90
14049;DHT22;7099;53.922;10.728;2023-06-04T21:53:02;15.10;63.70
14049;DHT22;7099;53.922;10.728;2023-06-04T21:57:07;15.00;63.90
14049;DHT22;7099;53.922;10.728;2023-06-04T22:01:13;14.90;63.70
14049;DHT22;7099;53.922;10.728;2023-06-04T22:05:18;14.80;64.30
14049;DHT22;7099;53.922;10.728;2023-06-04T22:09:24;14.60;64.60
14049;DHT22;7099;53.922;10.728;2023-06-04T22:13:31;14.60;65.30
14049;DHT22;7099;53.922;10.728;2023-06-04T22:17:36;14.50;65.30
14049;DHT22;7099;53.922;10.728;2023-06-04T22:21:42;14.40;65.10
14049;DHT22;7099;53.922;10.728;2023-06-04T22:25:48;14.30;65.10
14049;DHT22;7099;53.922;10.728;2023-06-04T22:29:53;14.20;65.00
14049;DHT22;7099;53.922;10.728;2023-06-04T22:33:59;14.10;65.10
14049;DHT22;7099;53.922;10.728;2023-06-04T22:38:04;14.00;65.40
14049;DHT22;7099;53.922;10.728;2023-06-04T22:42:10;13.90;65.70
14049;DHT22;7099;53.922;10.728;2023-06-04T22:46:15;13.80;65.80
14049;DHT22;7099;53.922;10.728;2023-06-04T22:50:21;13.70;66.00
14049;DHT22;7099;53.922;10.728;2023-06-04T22:54:27;13.60;66.20
14049;DHT22;7099;53.922;10.728;2023-06-04T22:58:34;13.50;66.20
14049;DHT22;7099;53.922;10.728;2023-06-04T23:02:40;13.40;66.40
14049;DHT22;7099;53.922;10.728;2023-06-04T23:06:46;13.40;66.10
14049;DHT22;7099;53.922;10.728;2023-06-04T23:10:51;13.30;65.80
14049;DHT22;7099;53.922;10.728;2023-06-04T23:14:57;13.20;66.50
14049;DHT22;7099;53.922;10.728;2023-06-04T23:19:02;13.10;66.60
14049;DHT22;7099;53.922;10.728;2023-06-04T23:23:08;13.00;66.70
14049;DHT22;7099;53.922;10.728;2023-06-04T23:27:15;13.00;66.70
14049;DHT22;7099;53.922;10.728;2023-06-04T23:31:21;12.90;67.00
14049;DHT22;7099;53.922;10.728;2023-06-04T23:35:26;12.90;66.80
14049;DHT22;7099;53.922;10.728;2023-06-04T23:39:32;12.80;66.80
14049;DHT22;7099;53.922;10.728;2023-06-04T23:43:38;12.70;67.20
14049;DHT22;7099;53.922;10.728;2023-06-04T23:47:43;12.60;67.90
14049;DHT22;7099;53.922;10.728;2023-06-04T23:51:49;12.60;67.40
14049;DHT22;7099;53.922;10.728;2023-06-04T23:55:55;12.50;67.40
